Time,TemperatureF,DewpointF,PressureIn,WindDirection,WindDirectionDegrees,WindSpeedMPH,WindSpeedGustMPH,Humidity,HourlyPrecipIn,Conditions,Clouds,dailyrainin,SolarRadiationWatts/m^2,SoftwareType,DateUTC
2013-04-19 00:10:00,36.9,28.0,29.95,WNW,302,6.0,18.0,69,0.00,,,0.00,0,weatherlink.com 1.10,2013-04-19 05:10:00,
2013-04-19 00:25:00,36.5,27.0,29.96,West,269,3.0,15.0,69,0.00,,,0.00,0,weatherlink.com 1.10,2013-04-19 05:25:00,
2013-04-19 00:40:00,36.1,27.0,29.96,WNW,300,4.0,16.0,70,0.00,,,0.00,0,weatherlink.com 1.10,2013-04-19 05:40:00,
2013-04-19 00:55:00,35.7,27.0,29.96,WSW,248,7.0,14.0,71,0.00,,,0.00,0,weatherlink.com 1.10,2013-04-19 05:55:00,
2013-04-19 01:11:00,35.4,27.0,29.96,NW,322,4.0,12.0,72,0.00,,,0.00,0,weatherlink.com 1.10,2013-04-19 06:11:00,
2013-04-19 01:25:00,35.2,27.0,29.96,WNW,286,8.0,14.0,72,0.00,,,0.00,0,weatherlink.com 1.10,2013-04-19 06:25:00,
2013-04-19 01:41:00,35.1,27.0,29.95,ENE,74,10.0,11.0,72,0.00,,,0.00,0,weatherlink.com 1.10,2013-04-19 06:41:00,
2013-04-19 01:56:00,35.1,27.0,29.95,WNW,289,3.0,11.0,72,0.00,,,0.00,0,weatherlink.com 1.10,2013-04-19 06:56:00,
2013-04-19 02:11:00,35.1,27.0,29.95,West,266,4.0,10.0,72,0.00,,,0.00,0,weatherlink.com 1.10,2013-04-19 07:11:00,
2013-04-19 02:26:00,35.2,27.0,29.94,West,272,5.0,7.0,73,0.00,,,0.00,0,weatherlink.com 1.10,2013-04-19 07:26:00,
2013-04-19 02:41:00,35.2,27.0,29.94,West,264,3.0,10.0,73,0.00,,,0.00,0,weatherlink.com 1.10,2013-04-19 07:41:00,
2013-04-19 02:56:00,35.2,27.0,29.94,NW,317,2.0,11.0,73,0.00,,,0.00,0,weatherlink.com 1.10,2013-04-19 07:56:00,
2013-04-19 03:11:00,35.2,27.0,29.94,WSW,242,5.0,11.0,73,0.00,,,0.00,0,weatherlink.com 1.10,2013-04-19 08:11:00,
2013-04-19 03:26:00,35.3,27.0,29.95,West,259,4.0,11.0,73,0.00,,,0.00,0,weatherlink.com 1.10,2013-04-19 08:26:00,
2013-04-19 03:41:00,35.3,27.0,29.95,WSW,257,6.0,12.0,73,0.00,,,0.00,0,weatherlink.com 1.10,2013-04-19 08:41:00,
2013-04-19 03:56:00,35.3,27.0,29.95,SW,229,6.0,16.0,72,0.00,,,0.00,0,weatherlink.com 1.10,2013-04-19 08:56:00,
2013-04-19 04:11:00,35.1,28.0,29.94,WSW,257,7.0,10.0,74,0.00,,,0.00,0,weatherlink.com 1.10,2013-04-19 09:11:00,
2013-04-19 04:26:00,35.0,28.0,29.95,WSW,250,6.0,15.0,75,0.00,,,0.00,0,weatherlink.com 1.10,2013-04-19 09:26:00,
2013-04-19 04:41:00,35.0,27.0,29.95,West,263,4.0,16.0,72,0.00,,,0.00,0,weatherlink.com 1.10,2013-04-19 09:41:00,
2013-04-19 04:56:00,34.6,27.0,29.95,NNW,347,5.0,10.0,73,0.00,,,0.00,0,weatherlink.com 1.10,2013-04-19 09:56:00,
2013-04-19 05:11:00,34.3,27.0,29.95,East,101,5.0,12.0,74,0.00,,,0.00,0,weatherlink.com 1.10,2013-04-19 10:11:00,
2013-04-19 05:26:00,33.9,27.0,29.96,WSW,252,4.0,11.0,76,0.00,,,0.00,0,weatherlink.com 1.10,2013-04-19 10:26:00,
2013-04-19 05:41:00,33.3,27.0,29.96,WNW,293,3.0,12.0,77,0.00,,,0.00,0,weatherlink.com 1.10,2013-04-19 10:41:00,
2013-04-19 05:56:00,33.0,27.0,29.96,WNW,291,8.0,10.0,79,0.00,,,0.00,0,weatherlink.com 1.10,2013-04-19 10:56:00,
2013-04-19 06:11:00,32.7,27.0,29.97,West,261,3.0,12.0,79,0.00,,,0.00,0,weatherlink.com 1.10,2013-04-19 11:11:00,
2013-04-19 06:26:00,32.6,27.0,29.98,SW,233,2.0,11.0,79,0.00,,,0.00,0,weatherlink.com 1.10,2013-04-19 11:26:00,
2013-04-19 06:41:00,32.4,27.0,29.98,SW,234,6.0,11.0,79,0.00,,,0.00,5,weatherlink.com 1.10,2013-04-19 11:41:00,
2013-04-19 06:56:00,32.4,27.0,29.99,West,272,1.0,10.0,79,0.00,,,0.00,16,weatherlink.com 1.10,2013-04-19 11:56:00,
2013-04-19 07:11:00,32.7,27.0,30.00,West,273,5.0,8.0,79,0.00,,,0.00,26,weatherlink.com 1.10,2013-04-19 12:11:00,
2013-04-19 07:26:00,33.2,27.0,30.00,West,259,4.0,11.0,78,0.00,,,0.00,58,weatherlink.com 1.10,2013-04-19 12:26:00,
2013-04-19 07:41:00,33.7,27.0,30.00,West,276,7.0,11.0,77,0.00,,,0.00,102,weatherlink.com 1.10,2013-04-19 12:41:00,
2013-04-19 07:56:00,34.3,27.0,30.00,WSW,240,4.0,10.0,75,0.00,,,0.00,171,weatherlink.com 1.10,2013-04-19 12:56:00,
2013-04-19 08:11:00,35.1,27.0,30.00,SSW,193,1.0,13.0,73,0.00,,,0.00,232,weatherlink.com 1.10,2013-04-19 13:11:00,
2013-04-19 08:26:00,35.8,27.0,30.01,WSW,250,7.0,14.0,71,0.00,,,0.00,281,weatherlink.com 1.10,2013-04-19 13:26:00,
2013-04-19 08:41:00,36.8,27.0,30.01,WNW,299,5.0,11.0,69,0.00,,,0.00,329,weatherlink.com 1.10,2013-04-19 13:41:00,
2013-04-19 08:59:00,37.5,27.0,30.01,SW,232,5.0,14.0,66,0.00,,,0.00,388,weatherlink.com 1.10,2013-04-19 13:59:00,
2013-04-19 09:14:00,38.4,26.0,30.01,SW,231,2.0,14.0,62,0.00,,,0.00,436,weatherlink.com 1.10,2013-04-19 14:14:00,
2013-04-19 09:28:00,39.3,26.0,30.02,WNW,293,1.0,11.0,59,0.00,,,0.00,480,weatherlink.com 1.10,2013-04-19 14:28:00,
2013-04-19 09:43:00,40.2,25.0,30.02,West,270,4.0,12.0,55,0.00,,,0.00,531,weatherlink.com 1.10,2013-04-19 14:43:00,
2013-04-19 09:58:00,40.7,24.0,30.02,WSW,253,9.0,14.0,52,0.00,,,0.00,575,weatherlink.com 1.10,2013-04-19 14:58:00,
2013-04-19 10:14:00,42.0,27.0,30.02,West,277,10.0,10.0,56,0.00,,,0.00,617,weatherlink.com 1.10,2013-04-19 15:14:00,
2013-04-19 10:29:00,42.0,24.0,30.02,West,279,9.0,14.0,50,0.00,,,0.00,661,weatherlink.com 1.10,2013-04-19 15:29:00,
2013-04-19 10:44:00,-999.0,-99.9,30.02,North,-999,-999.0,-999.0,-999,0.00,,,0.00,,weatherlink.com 1.10,2013-04-19 15:44:00,
2013-04-19 10:59:00,44.7,28.0,30.01,South,188,4.0,10.0,53,0.00,,,0.00,738,weatherlink.com 1.10,2013-04-19 15:59:00,
2013-04-19 11:14:00,44.5,26.0,30.02,WSW,237,3.0,12.0,49,0.00,,,0.00,768,weatherlink.com 1.10,2013-04-19 16:14:00,
2013-04-19 11:29:00,45.1,26.0,30.02,West,264,9.0,17.0,48,0.00,,,0.00,798,weatherlink.com 1.10,2013-04-19 16:29:00,
2013-04-19 11:44:00,45.9,29.0,30.02,WNW,289,7.0,14.0,51,0.00,,,0.00,828,weatherlink.com 1.10,2013-04-19 16:44:00,
2013-04-19 11:59:00,47.5,28.0,30.02,WSW,256,4.0,11.0,48,0.00,,,0.00,849,weatherlink.com 1.10,2013-04-19 16:59:00,
2013-04-19 12:17:00,47.9,26.0,30.02,SW,228,8.0,11.0,43,0.00,,,0.00,875,weatherlink.com 1.10,2013-04-19 17:17:00,
2013-04-19 12:32:00,48.1,24.0,30.01,WNW,282,7.0,16.0,39,0.00,,,0.00,900,weatherlink.com 1.10,2013-04-19 17:32:00,
2013-04-19 12:47:00,49.4,30.0,30.01,WNW,291,4.0,8.0,48,0.00,,,0.00,904,weatherlink.com 1.10,2013-04-19 17:47:00,
2013-04-19 13:02:00,49.7,26.0,30.01,WSW,248,4.0,16.0,40,0.00,,,0.00,930,weatherlink.com 1.10,2013-04-19 18:02:00,
2013-04-19 13:17:00,50.0,26.0,30.01,WSW,240,3.0,14.0,40,0.00,,,0.00,933,weatherlink.com 1.10,2013-04-19 18:17:00,
2013-04-19 13:32:00,50.3,27.0,30.00,WNW,286,1.0,16.0,40,0.00,,,0.00,935,weatherlink.com 1.10,2013-04-19 18:32:00,
2013-04-19 13:48:00,51.0,26.0,30.01,WSW,250,11.0,18.0,38,0.00,,,0.00,963,weatherlink.com 1.10,2013-04-19 18:48:00,
2013-04-19 14:02:00,51.4,26.0,30.00,WNW,302,9.0,15.0,38,0.00,,,0.00,970,weatherlink.com 1.10,2013-04-19 19:02:00,
2013-04-19 14:17:00,50.9,26.0,30.00,SW,236,4.0,16.0,38,0.00,,,0.00,322,weatherlink.com 1.10,2013-04-19 19:17:00,
2013-04-19 14:32:00,51.1,24.0,30.00,West,267,7.0,13.0,35,0.00,,,0.00,260,weatherlink.com 1.10,2013-04-19 19:32:00,
2013-04-19 14:47:00,51.1,24.0,30.00,West,278,8.0,17.0,35,0.00,,,0.00,392,weatherlink.com 1.10,2013-04-19 19:47:00,
2013-04-19 15:02:00,51.7,25.0,30.00,NW,318,2.0,16.0,36,0.00,,,0.00,1013,weatherlink.com 1.10,2013-04-19 20:02:00,
2013-04-19 15:17:00,52.7,25.0,30.00,NW,325,7.0,19.0,34,0.00,,,0.00,364,weatherlink.com 1.10,2013-04-19 20:17:00,
2013-04-19 15:32:00,52.7,26.0,30.00,West,269,4.0,11.0,36,0.00,,,0.00,279,weatherlink.com 1.10,2013-04-19 20:32:00,
2013-04-19 15:47:00,52.5,28.0,30.00,WSW,243,8.0,12.0,39,0.00,,,0.00,369,weatherlink.com 1.10,2013-04-19 20:47:00,
2013-04-19 16:02:00,51.4,28.0,30.01,WNW,296,7.0,19.0,40,0.00,,,0.00,297,weatherlink.com 1.10,2013-04-19 21:02:00,
2013-04-19 16:17:00,51.0,27.0,30.01,WSW,246,8.0,14.0,40,0.00,,,0.00,302,weatherlink.com 1.10,2013-04-19 21:17:00,
2013-04-19 16:32:00,51.9,28.0,30.02,WSW,254,6.0,11.0,40,0.00,,,0.00,255,weatherlink.com 1.10,2013-04-19 21:32:00,
2013-04-19 16:47:00,52.3,28.0,30.02,West,265,4.0,15.0,40,0.00,,,0.00,146,weatherlink.com 1.10,2013-04-19 21:47:00,
2013-04-19 17:03:00,52.3,30.0,30.02,WNW,290,5.0,13.0,42,0.00,,,0.00,299,weatherlink.com 1.10,2013-04-19 22:03:00,
2013-04-19 17:18:00,52.2,30.0,30.02,NNW,343,10.0,14.0,42,0.00,,,0.00,596,weatherlink.com 1.10,2013-04-19 22:18:00,
2013-04-19 17:33:00,53.5,30.0,30.02,WNW,285,8.0,13.0,40,0.00,,,0.00,446,weatherlink.com 1.10,2013-04-19 22:33:00,
2013-04-19 17:48:00,52.3,29.0,30.02,WNW,298,5.0,16.0,41,0.00,,,0.00,250,weatherlink.com 1.10,2013-04-19 22:48:00,
2013-04-19 18:03:00,52.0,29.0,30.03,West,275,4.0,13.0,42,0.00,,,0.00,406,weatherlink.com 1.10,2013-04-19 23:03:00,
2013-04-19 18:18:00,52.2,30.0,30.02,West,268,2.0,11.0,42,0.00,,,0.00,72,weatherlink.com 1.10,2013-04-19 23:18:00,
2013-04-19 18:33:00,50.9,29.0,30.03,WSW,242,1.0,12.0,43,0.00,,,0.00,120,weatherlink.com 1.10,2013-04-19 23:33:00,
2013-04-19 18:48:00,51.3,30.0,30.03,NNW,348,3.0,7.0,45,0.00,,,0.00,97,weatherlink.com 1.10,2013-04-19 23:48:00,
2013-04-19 19:03:00,50.6,30.0,30.03,NW,318,1.0,7.0,45,0.00,,,0.00,70,weatherlink.com 1.10,2013-04-20 00:03:00,
2013-04-19 19:18:00,50.2,29.0,30.04,WNW,298,3.0,6.0,45,0.00,,,0.00,44,weatherlink.com 1.10,2013-04-20 00:18:00,
2013-04-19 19:33:00,49.8,30.0,30.04,NW,318,2.0,7.0,46,0.00,,,0.00,60,weatherlink.com 1.10,2013-04-20 00:33:00,
2013-04-19 19:48:00,49.2,30.0,30.04,NW,307,4.0,6.0,47,0.00,,,0.00,16,weatherlink.com 1.10,2013-04-20 00:48:00,
2013-04-19 20:03:00,48.4,30.0,30.04,NW,307,1.0,5.0,49,0.00,,,0.00,0,weatherlink.com 1.10,2013-04-20 01:03:00,
2013-04-19 20:18:00,47.7,30.0,30.05,NNW,327,2.0,3.0,50,0.00,,,0.00,0,weatherlink.com 1.10,2013-04-20 01:18:00,
2013-04-19 20:33:00,46.9,29.0,30.05,NNW,327,0.0,3.0,51,0.00,,,0.00,0,weatherlink.com 1.10,2013-04-20 01:33:00,
2013-04-19 20:48:00,46.4,29.0,30.06,NNW,327,0.0,2.0,51,0.00,,,0.00,0,weatherlink.com 1.10,2013-04-20 01:48:00,
2013-04-19 21:03:00,46.0,29.0,30.07,NNW,327,0.0,2.0,52,0.00,,,0.00,0,weatherlink.com 1.10,2013-04-20 02:03:00,
2013-04-19 21:18:00,45.5,29.0,30.07,NNW,327,1.0,2.0,52,0.00,,,0.00,0,weatherlink.com 1.10,2013-04-20 02:18:00,
2013-04-19 21:33:00,45.2,29.0,30.08,NNW,327,0.0,1.0,53,0.00,,,0.00,0,weatherlink.com 1.10,2013-04-20 02:33:00,
2013-04-19 21:48:00,44.7,29.0,30.09,NNW,327,0.0,1.0,54,0.00,,,0.00,0,weatherlink.com 1.10,2013-04-20 02:48:00,
2013-04-19 22:03:00,44.2,29.0,30.09,NNW,327,0.0,1.0,55,0.00,,,0.00,0,weatherlink.com 1.10,2013-04-20 03:03:00,
2013-04-19 22:18:00,43.6,29.0,30.10,NNW,327,0.0,1.0,56,0.00,,,0.00,0,weatherlink.com 1.10,2013-04-20 03:18:00,
2013-04-19 22:33:00,42.9,28.0,30.10,NNW,327,0.0,1.0,57,0.00,,,0.00,0,weatherlink.com 1.10,2013-04-20 03:33:00,
2013-04-19 22:48:00,42.4,28.0,30.11,NNW,327,0.0,1.0,58,0.00,,,0.00,0,weatherlink.com 1.10,2013-04-20 03:48:00,
2013-04-19 23:03:00,41.9,27.0,30.11,NNW,327,0.0,2.0,57,0.00,,,0.00,0,weatherlink.com 1.10,2013-04-20 04:03:00,
2013-04-19 23:18:00,41.6,28.0,30.11,NNW,327,0.0,2.0,58,0.00,,,0.00,0,weatherlink.com 1.10,2013-04-20 04:18:00,
2013-04-19 23:33:00,41.2,27.0,30.11,NNW,327,0.0,2.0,58,0.00,,,0.00,0,weatherlink.com 1.10,2013-04-20 04:33:00,
2013-04-19 23:48:00,40.8,27.0,30.12,NNW,327,0.0,3.0,58,0.00,,,0.00,0,weatherlink.com 1.10,2013-04-20 04:48:00,